createdAt,value
2023-03-31T00:00:24.751Z,97156.78
2023-03-31T00:02:51.705Z,97160.00
2023-03-31T00:05:18.804Z,97155.78
2023-03-31T00:07:45.461Z,97158.41
2023-03-31T00:10:18.264Z,97163.66
2023-03-31T00:12:45.551Z,97167.53
2023-03-31T00:15:12.305Z,97157.19
2023-03-31T00:17:38.927Z,97159.19
2023-03-31T00:20:05.851Z,97159.19
2023-03-31T00:22:32.410Z,97160.84
2023-03-31T00:24:58.975Z,97164.88
2023-03-31T00:27:25.618Z,97170.56
2023-03-31T00:29:52.217Z,97162.03
2023-03-31T00:32:18.766Z,97161.03
2023-03-31T00:34:45.360Z,97165.28
2023-03-31T00:37:11.940Z,97167.94
2023-03-31T00:39:38.528Z,97174.41
2023-03-31T00:42:05.433Z,97168.97
2023-03-31T00:44:32.042Z,97165.50
2023-03-31T00:46:58.639Z,97165.28
2023-03-31T00:49:25.210Z,97166.91
2023-03-31T00:51:51.798Z,97172.56
2023-03-31T00:54:18.472Z,97171.56
2023-03-31T00:56:45.078Z,97174.19
2023-03-31T00:59:11.764Z,97169.38
2023-03-31T01:01:38.403Z,97167.34
2023-03-31T01:04:05.077Z,97165.50
2023-03-31T01:06:31.720Z,97165.50
2023-03-31T01:08:58.312Z,97173.41
2023-03-31T01:11:24.915Z,97178.25
2023-03-31T01:13:51.498Z,97166.13
2023-03-31T01:16:18.129Z,97151.31
2023-03-31T01:18:45.380Z,97146.03
2023-03-31T01:21:12.005Z,97141.78
2023-03-31T01:23:38.550Z,97132.44
2023-03-31T01:26:05.249Z,97137.72
2023-03-31T01:28:31.927Z,97136.31
2023-03-31T01:30:58.615Z,97133.06
2023-03-31T01:33:25.241Z,97129.22
2023-03-31T01:35:51.910Z,97131.25
2023-03-31T01:38:18.508Z,97119.28
2023-03-31T01:40:45.230Z,97112.78
2023-03-31T01:43:11.828Z,97110.13
2023-03-31T01:45:38.422Z,97120.66
2023-03-31T01:48:05.026Z,97117.41
2023-03-31T01:50:31.671Z,97116.19
2023-03-31T01:52:58.230Z,97105.25
2023-03-31T01:55:25.116Z,97111.72
2023-03-31T01:57:51.720Z,97112.09
2023-03-31T02:00:18.328Z,97097.13
2023-03-31T02:02:44.945Z,97093.69
2023-03-31T02:05:11.597Z,97089.44
2023-03-31T02:07:38.230Z,97085.38
2023-03-31T02:10:04.858Z,97082.66
2023-03-31T02:12:31.473Z,97078.00
2023-03-31T02:14:58.041Z,97082.88
2023-03-31T02:17:24.692Z,97072.16
2023-03-31T02:19:51.362Z,97078.28
2023-03-31T02:22:17.915Z,97077.66
2023-03-31T02:24:45.477Z,97070.25
2023-03-31T02:27:12.043Z,97067.06
2023-03-31T02:29:39.051Z,97061.34
2023-03-31T02:32:05.606Z,97073.06
2023-03-31T02:34:32.267Z,97080.91
2023-03-31T02:36:58.855Z,97075.78
2023-03-31T02:39:25.458Z,97075.59
2023-03-31T02:41:52.066Z,97081.63
2023-03-31T02:44:18.787Z,97072.16
2023-03-31T02:46:45.457Z,97074.78
2023-03-31T02:49:12.043Z,97081.38
2023-03-31T02:51:38.605Z,97089.19
2023-03-31T02:54:05.178Z,97082.94
2023-03-31T02:56:31.858Z,97079.81
2023-03-31T02:58:58.466Z,97079.53
2023-03-31T03:01:25.114Z,97075.78
2023-03-31T03:03:52.434Z,97077.75
2023-03-31T03:06:19.015Z,97070.28
2023-03-31T03:08:45.582Z,97068.47
2023-03-31T03:11:12.167Z,97069.78
2023-03-31T03:13:38.721Z,97075.25
2023-03-31T03:16:05.522Z,97065.28
2023-03-31T03:18:32.333Z,97071.53
2023-03-31T03:20:58.902Z,97077.41
2023-03-31T03:23:25.789Z,97067.66
2023-03-31T03:25:52.386Z,97066.03
2023-03-31T03:28:19.059Z,97066.47
2023-03-31T03:30:45.717Z,97066.22
2023-03-31T03:33:13.530Z,97063.91
2023-03-31T03:35:40.908Z,97048.47
2023-03-31T03:38:07.503Z,97048.31
2023-03-31T03:40:34.203Z,97050.91
2023-03-31T03:43:00.764Z,97054.53
2023-03-31T03:45:27.321Z,97059.63
2023-03-31T03:47:53.989Z,97040.06
2023-03-31T03:50:20.589Z,97044.34
2023-03-31T03:52:47.225Z,97036.13
2023-03-31T03:55:13.942Z,97039.56
2023-03-31T03:57:40.560Z,97018.94
2023-03-31T04:00:07.120Z,97031.28
2023-03-31T04:02:33.756Z,97041.16
2023-03-31T04:05:00.481Z,97028.91
2023-03-31T04:07:27.124Z,97034.72
2023-03-31T04:09:53.699Z,97028.28
2023-03-31T04:12:20.268Z,97013.44
2023-03-31T04:14:46.847Z,97012.91
2023-03-31T04:17:13.415Z,97019.00
2023-03-31T04:19:40.298Z,97023.88
2023-03-31T04:22:06.864Z,97026.31
2023-03-31T04:24:33.607Z,97039.94
2023-03-31T04:27:00.243Z,97029.78
2023-03-31T04:29:26.827Z,97022.00
2023-03-31T04:31:53.434Z,97020.06
2023-03-31T04:34:20.003Z,97007.09
2023-03-31T04:36:46.708Z,97001.72
2023-03-31T04:39:13.254Z,97004.78
2023-03-31T04:41:39.871Z,96999.28
2023-03-31T04:44:06.757Z,96994.47
2023-03-31T04:46:33.520Z,96991.16
2023-03-31T04:49:00.156Z,96987.97
2023-03-31T04:51:26.743Z,96981.50
2023-03-31T04:53:53.323Z,96974.66
2023-03-31T04:56:19.874Z,96973.84
2023-03-31T04:58:46.466Z,96971.72
2023-03-31T05:01:13.109Z,96973.78
2023-03-31T05:03:39.799Z,96975.88
2023-03-31T05:06:06.496Z,96983.91
2023-03-31T05:08:33.185Z,96973.63
2023-03-31T05:10:59.866Z,96981.31
2023-03-31T05:13:26.481Z,96979.47
2023-03-31T05:15:53.036Z,96976.56
2023-03-31T05:18:19.611Z,96980.47
2023-03-31T05:20:46.543Z,96982.69
2023-03-31T05:23:13.169Z,96975.44
2023-03-31T05:25:39.744Z,96974.59
2023-03-31T05:28:06.341Z,96992.56
2023-03-31T05:30:32.911Z,96985.50
2023-03-31T05:32:59.750Z,96992.88
2023-03-31T05:35:26.416Z,96980.69
2023-03-31T05:37:53.077Z,96978.78
2023-03-31T05:40:19.721Z,96978.22
2023-03-31T05:42:46.587Z,96973.03
2023-03-31T05:45:13.167Z,96966.09
2023-03-31T05:47:39.786Z,96957.69
2023-03-31T05:50:06.510Z,96955.69
2023-03-31T05:52:33.073Z,96943.97
2023-03-31T05:54:59.689Z,96940.34
2023-03-31T05:57:26.335Z,96944.34
2023-03-31T05:59:52.985Z,96936.25
2023-03-31T06:02:19.847Z,96924.66
2023-03-31T06:04:46.703Z,96913.31
2023-03-31T06:07:13.843Z,96910.31
2023-03-31T06:09:40.538Z,96908.63
2023-03-31T06:12:07.117Z,96902.91
2023-03-31T06:14:33.717Z,96900.38
2023-03-31T06:17:00.310Z,96902.22
2023-03-31T06:19:26.868Z,96887.06
2023-03-31T06:21:53.413Z,96876.78
2023-03-31T06:24:19.990Z,96883.81
2023-03-31T06:26:46.576Z,96869.06
2023-03-31T06:29:13.163Z,96857.38
2023-03-31T06:31:39.783Z,96843.81
2023-03-31T06:34:06.540Z,96845.25
2023-03-31T06:36:33.097Z,96853.09
2023-03-31T06:38:59.760Z,96849.47
2023-03-31T06:41:26.360Z,96856.94
2023-03-31T06:43:53.048Z,96859.94
2023-03-31T06:46:19.658Z,96854.13
2023-03-31T06:48:46.372Z,96845.44
2023-03-31T06:51:13.181Z,96835.81
2023-03-31T06:53:39.909Z,96833.91
2023-03-31T06:56:06.899Z,96827.28
2023-03-31T06:58:33.643Z,96832.22
2023-03-31T07:01:00.376Z,96835.41
2023-03-31T07:03:27.313Z,96834.75
2023-03-31T07:05:53.932Z,96827.47
2023-03-31T07:08:20.501Z,96815.44
2023-03-31T07:10:47.092Z,96800.63
2023-03-31T07:13:13.681Z,96801.09
2023-03-31T07:15:40.238Z,96794.34
2023-03-31T07:18:06.915Z,96777.09
2023-03-31T07:20:33.516Z,96774.94
2023-03-31T07:23:00.116Z,96777.38
2023-03-31T07:25:26.698Z,96785.34
2023-03-31T07:27:53.255Z,96763.03
2023-03-31T07:30:19.812Z,96764.34
2023-03-31T07:32:46.467Z,96762.97
2023-03-31T07:35:14.937Z,96768.13
2023-03-31T07:37:41.507Z,96766.41
2023-03-31T07:40:08.071Z,96769.38
2023-03-31T07:42:34.649Z,96770.41
2023-03-31T07:45:01.269Z,96767.31
2023-03-31T07:47:27.896Z,96775.44
2023-03-31T07:49:54.573Z,96773.53
2023-03-31T07:52:21.124Z,96764.06
2023-03-31T07:54:47.749Z,96767.16
2023-03-31T07:57:14.431Z,96764.91
2023-03-31T07:59:41.010Z,96763.09
2023-03-31T08:02:07.584Z,96766.94
2023-03-31T08:04:34.176Z,96766.16
2023-03-31T08:07:01.605Z,96758.38
2023-03-31T08:09:28.313Z,96753.88
2023-03-31T08:11:54.886Z,96754.16
2023-03-31T08:14:30.334Z,96752.06
2023-03-31T08:17:04.893Z,96737.59
2023-03-31T08:19:31.753Z,96739.78
2023-03-31T08:21:58.291Z,96728.06
2023-03-31T08:24:24.858Z,96735.38
2023-03-31T08:26:51.440Z,96738.31
2023-03-31T08:29:18.043Z,96731.53
2023-03-31T08:31:44.667Z,96726.19
2023-03-31T08:34:11.291Z,96711.31
2023-03-31T08:36:37.883Z,96712.41
2023-03-31T08:39:04.442Z,96711.69
2023-03-31T08:41:31.023Z,96706.22
2023-03-31T08:43:57.588Z,96703.44
2023-03-31T08:46:24.201Z,96692.84
2023-03-31T08:48:50.811Z,96681.03
2023-03-31T08:51:17.390Z,96685.47
2023-03-31T08:53:43.963Z,96668.44
2023-03-31T08:56:10.532Z,96669.75
2023-03-31T08:58:37.135Z,96654.56
2023-03-31T09:01:03.839Z,96648.00
2023-03-31T09:03:30.536Z,96636.84
2023-03-31T09:06:00.549Z,96628.03
2023-03-31T09:08:27.668Z,96617.75
2023-03-31T09:10:54.294Z,96613.38
2023-03-31T09:13:20.939Z,96607.19
2023-03-31T09:15:47.476Z,96605.13
2023-03-31T09:18:14.223Z,96607.06
2023-03-31T09:20:40.778Z,96605.66
2023-03-31T09:23:07.361Z,96602.72
2023-03-31T09:25:33.951Z,96601.72
2023-03-31T09:28:00.514Z,96605.06
2023-03-31T09:30:27.081Z,96591.34
2023-03-31T09:32:53.674Z,96589.75
2023-03-31T09:35:20.244Z,96592.94
2023-03-31T09:37:46.890Z,96576.44
2023-03-31T09:40:13.566Z,96569.94
2023-03-31T09:42:40.165Z,96552.06
2023-03-31T09:45:06.752Z,96541.53
2023-03-31T09:47:33.411Z,96537.13
2023-03-31T09:50:00.290Z,96535.88
2023-03-31T09:52:27.833Z,96547.25
2023-03-31T09:54:54.412Z,96550.81
2023-03-31T09:57:21.123Z,96542.78
2023-03-31T09:59:47.874Z,96536.94
2023-03-31T10:02:14.430Z,96514.72
2023-03-31T10:04:41.077Z,96520.38
2023-03-31T10:07:07.820Z,96530.22
2023-03-31T10:09:34.462Z,96519.56
2023-03-31T10:12:01.060Z,96531.06
2023-03-31T10:14:27.652Z,96528.81
2023-03-31T10:16:54.233Z,96517.47
2023-03-31T10:19:20.813Z,96522.31
2023-03-31T10:21:47.390Z,96511.03
2023-03-31T10:24:13.957Z,96500.63
2023-03-31T10:26:40.519Z,96495.03
2023-03-31T10:29:07.097Z,96485.41
2023-03-31T10:31:33.677Z,96485.22
2023-03-31T10:34:00.371Z,96476.97
2023-03-31T10:36:26.937Z,96469.25
2023-03-31T10:38:53.487Z,96463.28
2023-03-31T10:41:20.095Z,96465.28
2023-03-31T10:43:46.745Z,96459.09
2023-03-31T10:46:13.385Z,96451.81
2023-03-31T10:48:39.933Z,96454.22
2023-03-31T10:51:06.640Z,96459.28
2023-03-31T10:53:33.400Z,96453.16
2023-03-31T10:55:59.972Z,96439.53
2023-03-31T10:58:26.604Z,96439.53
2023-03-31T11:00:53.202Z,96437.88
2023-03-31T11:03:20.404Z,96437.94
2023-03-31T11:05:47.073Z,96431.53
2023-03-31T11:08:13.631Z,96428.00
2023-03-31T11:10:40.277Z,96423.59
2023-03-31T11:13:06.853Z,96419.94
2023-03-31T11:15:33.563Z,96392.44
2023-03-31T11:18:00.705Z,96382.53
2023-03-31T11:20:28.583Z,96376.22
2023-03-31T11:22:56.944Z,96380.13
2023-03-31T11:25:23.498Z,96371.91
2023-03-31T11:27:50.142Z,96367.81
2023-03-31T11:30:16.833Z,96363.91
2023-03-31T11:32:43.400Z,96365.78
2023-03-31T11:35:09.995Z,96357.81
2023-03-31T11:37:36.660Z,96354.00
2023-03-31T11:40:03.254Z,96360.09
2023-03-31T11:42:29.830Z,96360.28
2023-03-31T11:44:56.401Z,96356.56
2023-03-31T11:47:22.960Z,96359.09
2023-03-31T11:49:49.595Z,96357.91
2023-03-31T11:52:16.145Z,96350.47
2023-03-31T11:54:42.719Z,96335.91
2023-03-31T11:57:09.419Z,96335.22
2023-03-31T11:59:36.027Z,96329.06
2023-03-31T12:02:02.657Z,96331.91
2023-03-31T12:04:29.269Z,96330.50
2023-03-31T12:06:55.908Z,96322.56
2023-03-31T12:09:22.458Z,96310.97
2023-03-31T12:11:49.120Z,96312.28
2023-03-31T12:14:15.864Z,96294.53
2023-03-31T12:16:42.661Z,96295.84
2023-03-31T12:19:09.274Z,96295.28
2023-03-31T12:21:35.902Z,96286.72
2023-03-31T12:24:02.479Z,96294.69
2023-03-31T12:26:29.160Z,96290.94
2023-03-31T12:28:55.757Z,96283.94
2023-03-31T12:31:22.759Z,96282.28
2023-03-31T12:33:49.326Z,96281.72
2023-03-31T12:36:16.015Z,96271.22
2023-03-31T12:38:42.751Z,96254.97
2023-03-31T12:41:09.311Z,96259.09
2023-03-31T12:43:35.976Z,96264.75
2023-03-31T12:46:02.569Z,96247.53
2023-03-31T12:48:29.344Z,96237.25
2023-03-31T12:50:55.951Z,96224.13
2023-03-31T12:53:22.553Z,96231.84
2023-03-31T12:55:49.114Z,96225.91
2023-03-31T12:58:15.892Z,96221.09
2023-03-31T13:00:42.517Z,96217.16
2023-03-31T13:03:09.235Z,96215.75
2023-03-31T13:05:35.876Z,96212.88
2023-03-31T13:08:02.547Z,96217.84
2023-03-31T13:10:29.150Z,96211.72
2023-03-31T13:12:55.756Z,96210.38
2023-03-31T13:15:22.299Z,96198.97
2023-03-31T13:17:48.930Z,96199.66
2023-03-31T13:20:15.570Z,96201.25
2023-03-31T13:22:42.179Z,96197.19
2023-03-31T13:25:08.832Z,96199.88
2023-03-31T13:27:35.423Z,96198.91
2023-03-31T13:30:02.151Z,96179.38
2023-03-31T13:32:28.790Z,96172.22
2023-03-31T13:34:55.401Z,96180.31
2023-03-31T13:37:22.239Z,96170.09
2023-03-31T13:39:48.833Z,96161.03
2023-03-31T13:42:15.416Z,96155.50
2023-03-31T13:44:41.971Z,96160.53
2023-03-31T13:47:08.558Z,96148.25
2023-03-31T13:49:35.125Z,96152.38
2023-03-31T13:52:01.707Z,96158.44
2023-03-31T13:54:28.329Z,96143.47
2023-03-31T13:56:54.952Z,96143.97
2023-03-31T13:59:21.623Z,96130.19
2023-03-31T14:01:48.255Z,96118.34
2023-03-31T14:04:14.827Z,96113.69
2023-03-31T14:06:41.461Z,96107.88
2023-03-31T14:09:08.061Z,96111.53
2023-03-31T14:11:34.655Z,96109.50
2023-03-31T14:14:01.232Z,96107.44
2023-03-31T14:16:27.914Z,96112.78
2023-03-31T14:18:54.526Z,96108.50
2023-03-31T14:21:21.133Z,96112.56
2023-03-31T14:23:47.839Z,96111.91
2023-03-31T14:26:14.733Z,96107.97
2023-03-31T14:28:42.554Z,96099.75
2023-03-31T14:31:09.521Z,96093.88
2023-03-31T14:33:36.271Z,96081.31
2023-03-31T14:36:02.919Z,96080.53
2023-03-31T14:38:29.797Z,96073.91
2023-03-31T14:40:56.495Z,96066.56
2023-03-31T14:43:23.322Z,96069.88
2023-03-31T14:45:49.912Z,96058.75
2023-03-31T14:48:16.498Z,96055.13
2023-03-31T14:50:43.137Z,96053.88
2023-03-31T14:53:09.769Z,96051.16
2023-03-31T14:58:05.786Z,96048.28
2023-03-31T15:00:32.894Z,96051.09
2023-03-31T15:02:59.499Z,96058.81
2023-03-31T15:05:26.186Z,96063.59
2023-03-31T15:07:52.869Z,96068.97
2023-03-31T15:10:19.420Z,96065.63
2023-03-31T15:12:46.188Z,96067.00
2023-03-31T15:15:12.741Z,96065.78
2023-03-31T15:17:39.409Z,96068.19
2023-03-31T15:20:05.965Z,96069.72
2023-03-31T15:22:32.511Z,96070.94
2023-03-31T15:24:59.066Z,96081.84
2023-03-31T15:27:34.021Z,96075.53
2023-03-31T15:30:03.103Z,96071.44
2023-03-31T15:32:29.926Z,96082.13
2023-03-31T15:35:02.434Z,96080.56
2023-03-31T15:37:34.414Z,96079.91
2023-03-31T15:40:00.944Z,96079.66
2023-03-31T15:42:27.497Z,96082.97
2023-03-31T15:44:54.044Z,96077.97
2023-03-31T15:47:20.584Z,96077.13
2023-03-31T15:49:47.197Z,96067.47
2023-03-31T15:52:13.745Z,96068.28
2023-03-31T15:54:42.491Z,96062.63
2023-03-31T15:57:09.137Z,96060.38
2023-03-31T15:59:51.177Z,96058.88
2023-03-31T16:02:21.758Z,96063.50
2023-03-31T16:04:48.410Z,96068.66
2023-03-31T16:07:14.994Z,96062.59
2023-03-31T16:09:41.664Z,96068.38
2023-03-31T16:12:08.232Z,96074.47
2023-03-31T16:14:34.876Z,96080.16
2023-03-31T16:17:04.480Z,96073.44
2023-03-31T16:19:31.074Z,96084.09
2023-03-31T16:21:57.808Z,96093.00
2023-03-31T16:24:24.510Z,96089.31
2023-03-31T16:26:51.146Z,96084.00
2023-03-31T16:29:17.724Z,96085.59
2023-03-31T16:31:44.344Z,96088.19
2023-03-31T16:34:11.016Z,96086.66
2023-03-31T16:36:37.581Z,96089.56
2023-03-31T16:39:04.212Z,96102.88
2023-03-31T16:41:30.761Z,96124.19
2023-03-31T16:43:57.301Z,96149.22
2023-03-31T16:46:23.887Z,96154.56
2023-03-31T16:48:50.617Z,96195.81
2023-03-31T16:51:17.556Z,96193.84
2023-03-31T16:53:44.117Z,96203.94
2023-03-31T16:56:10.718Z,96223.03
2023-03-31T16:58:37.464Z,96243.34
2023-03-31T17:01:04.052Z,96251.88
2023-03-31T17:03:30.761Z,96251.28
2023-03-31T17:05:59.264Z,96245.50
2023-03-31T17:08:26.064Z,96268.00
2023-03-31T17:10:52.662Z,96273.38
2023-03-31T17:13:19.279Z,96280.22
2023-03-31T17:15:45.846Z,96282.56
2023-03-31T17:18:12.599Z,96289.09
2023-03-31T17:20:39.310Z,96289.06
2023-03-31T17:23:05.956Z,96288.75
2023-03-31T17:25:32.553Z,96273.88
2023-03-31T17:27:59.093Z,96298.34
2023-03-31T17:30:25.697Z,96290.81
2023-03-31T17:32:52.537Z,96270.13
2023-03-31T17:35:19.706Z,96253.34
2023-03-31T17:37:48.594Z,96233.41
2023-03-31T17:40:15.128Z,96205.00
2023-03-31T17:42:41.768Z,96197.72
2023-03-31T17:45:08.429Z,96216.41
2023-03-31T17:47:35.026Z,96242.97
2023-03-31T17:50:01.627Z,96261.78
2023-03-31T17:52:28.207Z,96264.59
2023-03-31T17:54:54.782Z,96246.16
2023-03-31T17:57:21.434Z,96252.47
2023-03-31T17:59:48.121Z,96249.16
2023-03-31T18:02:14.701Z,96240.44
2023-03-31T18:04:41.310Z,96248.28
2023-03-31T18:07:07.907Z,96257.22
2023-03-31T18:09:34.498Z,96260.59
2023-03-31T18:12:01.056Z,96266.81
2023-03-31T18:14:27.658Z,96260.84
2023-03-31T18:16:54.293Z,96257.72
2023-03-31T18:19:20.856Z,96252.50
2023-03-31T18:21:47.614Z,96252.47
2023-03-31T18:24:14.481Z,96248.31
2023-03-31T18:26:41.050Z,96252.06
2023-03-31T18:29:07.609Z,96249.19
2023-03-31T18:31:34.239Z,96237.72
2023-03-31T18:34:00.889Z,96245.16
2023-03-31T18:36:28.701Z,96228.56
2023-03-31T18:38:55.385Z,96225.53
2023-03-31T18:41:21.965Z,96218.97
2023-03-31T18:43:48.586Z,96224.66
2023-03-31T18:46:15.441Z,96233.09
2023-03-31T18:48:43.188Z,96236.22
2023-03-31T18:51:09.760Z,96247.28
2023-03-31T18:53:37.321Z,96238.38
2023-03-31T18:56:03.949Z,96245.56
2023-03-31T18:58:30.515Z,96261.78
2023-03-31T19:00:57.270Z,96260.69
2023-03-31T19:03:24.037Z,96261.38
2023-03-31T19:05:50.615Z,96254.16
2023-03-31T19:08:17.211Z,96255.88
2023-03-31T19:10:43.781Z,96242.34
2023-03-31T19:13:10.356Z,96241.84
2023-03-31T19:15:36.885Z,96235.47
2023-03-31T19:18:03.561Z,96227.66
2023-03-31T19:20:30.208Z,96233.59
2023-03-31T19:22:56.773Z,96239.03
2023-03-31T19:25:23.347Z,96240.66
2023-03-31T19:27:49.901Z,96237.19
2023-03-31T19:30:16.465Z,96239.69
2023-03-31T19:32:43.122Z,96229.41
2023-03-31T19:35:10.137Z,96237.22
2023-03-31T19:37:36.737Z,96238.56
2023-03-31T19:40:03.281Z,96237.63
2023-03-31T19:42:30.171Z,96241.75
2023-03-31T19:44:56.856Z,96246.34
2023-03-31T19:47:23.431Z,96233.78
2023-03-31T19:49:50.022Z,96225.75
2023-03-31T19:52:16.739Z,96230.34
2023-03-31T19:54:43.323Z,96232.34
2023-03-31T19:57:09.994Z,96229.78
2023-03-31T20:02:20.958Z,96213.31
2023-03-31T20:04:47.784Z,96201.38
2023-03-31T20:07:15.263Z,96213.69
2023-03-31T20:09:41.863Z,96212.56
2023-03-31T20:12:08.557Z,96213.63
2023-03-31T20:14:35.164Z,96206.88
2023-03-31T20:17:01.738Z,96210.41
2023-03-31T20:19:28.268Z,96212.63
2023-03-31T20:21:54.864Z,96218.78
2023-03-31T20:24:21.450Z,96217.94
2023-03-31T20:26:48.010Z,96217.25
2023-03-31T20:29:14.616Z,96220.34
2023-03-31T20:31:41.197Z,96209.94
2023-03-31T20:34:07.778Z,96210.44
2023-03-31T20:36:34.411Z,96208.50
2023-03-31T20:39:00.952Z,96213.13
2023-03-31T20:41:27.495Z,96208.56
2023-03-31T20:43:54.060Z,96205.53
2023-03-31T20:46:20.619Z,96205.63
2023-03-31T20:48:47.204Z,96201.06
2023-03-31T20:51:13.766Z,96192.00
2023-03-31T20:53:40.351Z,96177.84
2023-03-31T20:56:06.913Z,96191.50
2023-03-31T20:58:33.538Z,96196.19
2023-03-31T21:01:00.197Z,96186.28
2023-03-31T21:03:26.815Z,96190.88
2023-03-31T21:05:54.331Z,96191.66
2023-03-31T21:08:20.922Z,96182.25
2023-03-31T21:10:47.507Z,96182.69
2023-03-31T21:13:15.438Z,96177.78
2023-03-31T21:15:41.993Z,96175.25
2023-03-31T21:18:08.653Z,96181.22
2023-03-31T21:20:35.274Z,96168.19
2023-03-31T21:23:01.902Z,96158.44
2023-03-31T21:25:28.566Z,96159.09
2023-03-31T21:27:55.132Z,96157.50
2023-03-31T21:30:21.705Z,96159.22
2023-03-31T21:32:48.314Z,96158.19
2023-03-31T21:35:15.079Z,96164.38
2023-03-31T21:37:41.641Z,96176.63
2023-03-31T21:40:08.554Z,96176.16
2023-03-31T21:42:35.139Z,96182.16
2023-03-31T21:45:01.729Z,96180.09
2023-03-31T21:47:28.362Z,96174.59
2023-03-31T21:49:54.912Z,96167.72
2023-03-31T21:52:21.753Z,96171.84
2023-03-31T21:54:50.601Z,96156.34
2023-03-31T21:57:17.277Z,96152.91
2023-03-31T21:59:43.938Z,96159.81
2023-03-31T22:02:10.633Z,96161.75
2023-03-31T22:04:37.258Z,96162.69
2023-03-31T22:07:03.840Z,96166.03
2023-03-31T22:09:30.459Z,96166.44
2023-03-31T22:11:57.046Z,96168.66
2023-03-31T22:14:23.606Z,96177.91
2023-03-31T22:16:50.249Z,96177.00
2023-03-31T22:19:17.186Z,96184.81
2023-03-31T22:21:44.031Z,96182.19
2023-03-31T22:24:10.667Z,96185.16
2023-03-31T22:26:37.234Z,96186.09
2023-03-31T22:29:03.821Z,96183.66
2023-03-31T22:31:30.451Z,96183.31
2023-03-31T22:33:57.107Z,96178.03
2023-03-31T22:36:23.752Z,96178.72
2023-03-31T22:38:50.358Z,96170.00
2023-03-31T22:41:16.950Z,96158.78
2023-03-31T22:43:45.871Z,96161.44
2023-03-31T22:46:12.924Z,96169.34
2023-03-31T22:48:39.545Z,96178.31
2023-03-31T22:51:06.117Z,96168.44
2023-03-31T22:53:32.689Z,96170.94
2023-03-31T22:55:59.364Z,96170.03
2023-03-31T22:58:25.909Z,96170.72
2023-03-31T23:00:52.528Z,96169.09
2023-03-31T23:03:19.197Z,96172.31
2023-03-31T23:05:45.832Z,96166.72
2023-03-31T23:08:12.400Z,96166.38
2023-03-31T23:10:38.970Z,96162.56
2023-03-31T23:13:05.536Z,96155.25
2023-03-31T23:15:32.404Z,96158.09
2023-03-31T23:17:59.597Z,96158.56
2023-03-31T23:20:26.209Z,96170.03
2023-03-31T23:22:52.763Z,96165.34
2023-03-31T23:25:19.342Z,96170.38
2023-03-31T23:27:45.942Z,96167.41
2023-03-31T23:30:12.591Z,96174.75
2023-03-31T23:32:39.189Z,96160.75
2023-03-31T23:35:05.780Z,96171.53
2023-03-31T23:37:32.431Z,96169.69
2023-03-31T23:39:59.141Z,96162.91
2023-03-31T23:42:25.891Z,96158.88
2023-03-31T23:44:52.441Z,96167.00
2023-03-31T23:47:19.004Z,96165.66
2023-03-31T23:49:45.626Z,96163.75
2023-03-31T23:52:12.193Z,96162.22
2023-03-31T23:54:38.748Z,96160.97
2023-03-31T23:57:05.453Z,96156.03
2023-03-31T23:59:32.073Z,96154.31
